Adams, TN (37010)

8:09 PM CDT on July 22, 2017 (GMT -0500)
Craig's Bartlett Road Station | | Change Station
Active Advisory: Heat Advisory

Elev 551 ft 36.56 °N, 86.99 °W | Updated 31 seconds ago

Clear
Clear
86.4 °F
Feels Like 98 °F
N
0.0
Wind Variable Wind from SW

Today
High -- | Low -- °F
--% Chance of Precip.
Yesterday
High -- | Low -- °F
Precip. -- in
Pressure 29.85 in
Visibility 10.0 miles
Clouds Clear
Heat Index 98 °F
Dew Point 77 °F
Humidity 74%
Rainfall 0.00 in
Snow Depth Not available.
5:46 AM 8:02 PM
Waning Crescent, 0% visible
METAR KHOP 222258Z AUTO 22010KT 10SM CLR 34/24 A2986 RMK AO2 SLP107 T03350241
Pressure 29.85 in
Visibility 10.0 miles
Clouds Clear
Heat Index 98 °F
Dew Point 77 °F
Humidity 74%
Rainfall 0.00 in
Snow Depth Not available.
5:46 AM 8:02 PM
Waning Crescent, 0% visible
METAR KHOP 222258Z AUTO 22010KT 10SM CLR 34/24 A2986 RMK AO2 SLP107 T03350241

Get Your Daily Forecast Email!

Thanks for signing up!

Be on the lookout for a verification email in your inbox.

You'll start receiving severe weather alerts in your inbox..

×

10-Day Weather Forecast

Almanac

Astronomy

Jul. 22, 2017 Rise Set
Actual Time
Civil Twilight
Nautical Twilight
Astronomical Twilight
Moon
Length of Visible Light
Length of Day
Tomorrow will be .
, % of the Moon is Illuminated

Today's Extremes

State Highs State Lows

Community

WunderPhotos

Category 6

Welcome to Category 6. This is the collective home for Weather Underground's featured writeups by Dr. Jeff Masters (right), Bob Henson (left), Chris Burt, and other regular contributors.

Nearby

Air Quality

  Air Quality AQ Index Pollutant
Not available.

Snow Depth

Station Depth Elevation

Earthquake Activity

City Distance Mag. Time & Date
Minimum magnitude displayed is 2.5.

Coastal Water Temperatures

Place Temperature

Stations

Nearby Weather Stations

Station Location Temp. Windchill Dew Point Humidity Wind Precip. Elev Updated Type
                   

Watches & Warnings

Heat Advisory
Issued: 2:48 PM CDT Jul. 22, 2017 – National Weather Service

... Heat advisory remains in effect until 7 PM CDT Sunday...

* heat index values... 100 to 106 during the afternoon hours.

* Impacts... the combination of hot temperatures and high
humidity will lead to an increased risk of heat related stress
and illness. The very Young, the elderly, those without air
conditioning, and those participating in strenuous outdoor
activities will be the most susceptible. Also, car interiors
will reach lethal temperatures in a matter of minutes.

Precautionary/preparedness actions...

A heat advisory means that a period of hot temperatures is
expected. The combination of hot temperatures and high humidity
will combine to create a situation in which heat illnesses are
possible. Drink plenty of fluids... stay in an air-conditioned
room... stay out of the sun... and check up on relatives and
neighbors.



27